Time;durP1;ratioP1;P1;durP2;ratioP2;P2;SDS_P1;SDS_P2;PMS_P1;PMS_P2;Temp;Humidity;BMP_temperature;BMP_pressure;BME280_temperature;BME280_humidity;BME280_pressure;Samples;Min_cycle;Max_cycle;Signal;HPM_P1;HPM_P2
2022/01/08 00:02:14;;;;;;;1.53;0.93;;;;;;;1.84;81.25;97675.03;5056536;28;20189;-68
2022/01/08 00:04:40;;;;;;;2.73;1.00;;;;;;;1.95;80.96;97664.16;5056480;28;20193;-68
2022/01/08 00:07:07;;;;;;;2.20;1.17;;;;;;;1.92;80.47;97660.09;5056442;28;20225;-68
2022/01/08 00:09:33;;;;;;;1.50;1.00;;;;;;;1.91;80.29;97662.88;5056368;28;20194;-67
2022/01/08 00:11:59;;;;;;;1.33;1.10;;;;;;;1.88;80.55;97655.34;5056461;28;20194;-68
2022/01/08 00:14:25;;;;;;;1.07;0.80;;;;;;;1.89;80.88;97646.53;5056479;28;20217;-68
2022/01/08 00:16:52;;;;;;;1.00;0.90;;;;;;;1.88;80.46;97644.88;5056011;28;20217;-68
2022/01/08 00:19:18;;;;;;;0.83;0.83;;;;;;;1.99;80.05;97642.66;5056407;28;20239;-68
2022/01/08 00:21:45;;;;;;;1.43;1.20;;;;;;;1.97;80.65;97633.34;5056370;28;20201;-68
2022/01/08 00:24:11;;;;;;;2.33;1.17;;;;;;;2.11;79.36;97614.22;5056273;28;20193;-68
2022/01/08 00:26:37;;;;;;;1.27;0.80;;;;;;;2.11;79.52;97616.84;5056196;28;20237;-68
2022/01/08 00:29:04;;;;;;;1.43;0.90;;;;;;;2.05;80.79;97613.13;5055982;28;20284;-69
2022/01/08 00:31:31;;;;;;;1.10;0.90;;;;;;;2.14;80.06;97611.25;5056191;28;20259;-68
2022/01/08 00:33:57;;;;;;;1.00;0.70;;;;;;;2.26;79.32;97602.78;5055970;28;20200;-68
2022/01/08 00:36:24;;;;;;;1.87;1.10;;;;;;;2.35;77.97;97599.06;5055843;28;20484;-68
2022/01/08 00:38:50;;;;;;;1.07;0.97;;;;;;;2.28;78.74;97598.19;5056201;28;20201;-68
2022/01/08 00:41:16;;;;;;;1.97;1.07;;;;;;;2.29;78.34;97598.97;5056019;28;20205;-68
2022/01/08 00:43:43;;;;;;;1.23;0.90;;;;;;;2.33;80.20;97589.75;5055734;28;20202;-68
2022/01/08 00:46:09;;;;;;;0.90;0.80;;;;;;;2.37;78.66;97591.03;5055905;28;20221;-68
2022/01/08 00:48:35;;;;;;;1.60;1.00;;;;;;;2.40;77.82;97580.19;5055941;28;20228;-67
2022/01/08 00:51:02;;;;;;;1.43;0.80;;;;;;;2.46;77.50;97568.97;5055789;28;20235;-68
2022/01/08 00:53:28;;;;;;;1.83;1.10;;;;;;;2.50;77.03;97575.50;5055617;28;20624;-68
2022/01/08 00:55:54;;;;;;;2.17;1.10;;;;;;;2.55;77.26;97567.91;5056613;28;20196;-68
2022/01/08 00:58:21;;;;;;;1.87;1.10;;;;;;;2.56;75.78;97572.13;5059825;28;20196;-67
2022/01/08 01:00:47;;;;;;;2.37;1.27;;;;;;;2.53;76.22;97572.53;5059527;28;20185;-68
2022/01/08 01:03:14;;;;;;;2.87;1.10;;;;;;;2.70;75.32;97564.28;5059471;28;20189;-68
2022/01/08 01:05:40;;;;;;;2.00;1.20;;;;;;;2.59;76.05;97553.41;5059652;28;20197;-68
2022/01/08 01:08:07;;;;;;;2.97;1.13;;;;;;;2.57;75.75;97553.59;5059457;28;20181;-68
2022/01/08 01:10:33;;;;;;;2.77;1.23;;;;;;;2.56;75.94;97545.91;5058453;28;20205;-67
2022/01/08 01:12:59;;;;;;;3.63;1.20;;;;;;;2.53;75.87;97541.84;5060158;28;20511;-67
2022/01/08 01:15:26;;;;;;;1.00;0.90;;;;;;;2.58;76.36;97538.69;5059549;28;20212;-68
2022/01/08 01:17:52;;;;;;;1.50;1.10;;;;;;;2.52;76.24;97542.03;5059106;28;20644;-68
2022/01/08 01:20:21;;;;;;;1.50;1.13;;;;;;;2.48;76.93;97530.28;5059437;28;20194;-68
2022/01/08 01:22:54;;;;;;;2.70;1.37;;;;;;;2.50;77.11;97529.09;5059403;28;20248;-68
2022/01/08 01:25:25;;;;;;;1.67;1.00;;;;;;;2.51;77.44;97516.78;5059330;28;20194;-68
2022/01/08 01:28:10;;;;;;;1.63;1.17;;;;;;;2.46;78.50;97514.72;5059196;28;20229;-68
2022/01/08 01:41:49;;;;;;;1.50;1.20;;;;;;;2.46;77.45;97485.84;5058846;28;20306;-68
2022/01/08 01:47:02;;;;;;;3.23;1.67;;;;;;;2.36;78.92;97468.75;5041352;28;20217;-68
2022/01/08 01:49:30;;;;;;;1.93;1.50;;;;;;;2.35;78.31;97467.94;5058819;28;20241;-68
2022/01/08 01:51:59;;;;;;;2.20;1.60;;;;;;;2.31;80.37;97461.41;5058802;28;20313;-68
2022/01/08 01:54:26;;;;;;;1.77;1.40;;;;;;;2.24;78.47;97455.28;5058871;28;20200;-68
2022/01/08 01:56:52;;;;;;;2.83;1.50;;;;;;;2.28;79.32;97442.63;5058403;28;20670;-68
2022/01/08 01:59:19;;;;;;;1.87;1.43;;;;;;;2.24;79.29;97425.63;5059012;28;20196;-68
2022/01/08 02:01:45;;;;;;;2.67;1.70;;;;;;;2.21;79.39;97418.94;5058405;28;20186;-68
2022/01/08 02:04:12;;;;;;;2.27;1.63;;;;;;;2.22;80.32;97411.91;5058624;28;20189;-68
2022/01/08 02:06:38;;;;;;;3.50;1.80;;;;;;;2.16;80.54;97404.78;5058491;28;20260;-68
2022/01/08 02:09:04;;;;;;;2.57;1.60;;;;;;;2.21;79.93;97407.66;5057381;28;20501;-68
2022/01/08 02:11:31;;;;;;;2.13;1.60;;;;;;;2.17;79.85;97394.06;5058400;28;20213;-68
2022/01/08 02:14:04;;;;;;;2.40;1.60;;;;;;;2.20;80.33;97392.91;5058475;28;20185;-68
2022/01/08 02:16:32;;;;;;;2.93;1.70;;;;;;;2.18;82.29;97387.03;5058024;28;20656;-68
2022/01/08 02:18:58;;;;;;;3.00;1.80;;;;;;;2.27;81.02;97383.31;5058366;28;20212;-68
2022/01/08 02:21:26;;;;;;;2.03;1.40;;;;;;;2.29;80.25;97384.75;5058308;28;20182;-68
2022/01/08 02:23:52;;;;;;;5.33;1.67;;;;;;;2.52;78.71;97376.75;5058221;28;20635;-67
2022/01/08 02:26:19;;;;;;;1.90;1.30;;;;;;;2.52;78.79;97368.91;5057805;28;20217;-68
2022/01/08 02:28:45;;;;;;;1.60;1.30;;;;;;;2.56;79.20;97362.25;5058219;28;20196;-68
2022/01/08 02:31:25;;;;;;;1.23;1.10;;;;;;;2.62;78.79;97354.44;5058047;28;20213;-68
2022/01/08 02:33:53;;;;;;;2.23;1.30;;;;;;;2.78;78.61;97348.16;5058031;28;20492;-68
2022/01/08 02:36:20;;;;;;;1.90;1.10;;;;;;;2.72;79.26;97364.66;5057678;28;20225;-67
2022/01/08 02:38:47;;;;;;;2.37;0.93;;;;;;;2.79;79.37;97355.84;5057654;28;20599;-67
2022/01/08 02:41:14;;;;;;;2.60;1.10;;;;;;;2.85;78.58;97339.34;5057537;28;20201;-68
2022/01/08 02:43:45;;;;;;;1.70;1.37;;;;;;;2.90;79.20;97333.53;5057885;28;20192;-68
2022/01/08 02:46:12;;;;;;;2.53;1.13;;;;;;;2.86;79.20;97329.66;5057731;28;20221;-68
2022/01/08 02:48:39;;;;;;;1.47;1.10;;;;;;;2.81;79.70;97325.00;5057804;28;20197;-68
2022/01/08 02:51:05;;;;;;;1.07;0.90;;;;;;;2.86;79.66;97324.41;5057329;28;20209;-68
2022/01/08 02:53:31;;;;;;;1.90;1.13;;;;;;;2.79;80.27;97326.16;5057711;28;20193;-68
2022/01/08 02:55:58;;;;;;;3.43;1.00;;;;;;;2.86;81.48;97321.78;5057295;28;20497;-68
2022/01/08 02:58:26;;;;;;;1.07;0.83;;;;;;;2.87;79.66;97305.84;5057252;28;20597;-68
2022/01/08 03:00:52;;;;;;;1.37;0.90;;;;;;;2.92;80.09;97306.09;5057557;28;20194;-68
2022/01/08 03:03:19;;;;;;;1.57;0.80;;;;;;;3.04;79.03;97309.84;5057530;28;20196;-68
2022/01/08 03:05:45;;;;;;;4.13;1.10;;;;;;;3.07;79.89;97300.78;5057427;28;20185;-68
2022/01/08 03:08:12;;;;;;;2.17;0.80;;;;;;;3.14;79.83;97296.38;5057067;28;20596;-68
2022/01/08 03:10:38;;;;;;;1.87;1.07;;;;;;;3.14;80.12;97297.19;5057335;28;20209;-67
2022/01/08 03:13:05;;;;;;;1.50;1.10;;;;;;;3.10;80.48;97295.13;5058138;28;20486;-69
2022/01/08 03:15:35;;;;;;;1.40;0.83;;;;;;;3.18;80.55;97282.69;5057257;28;20193;-69
2022/01/08 03:18:02;;;;;;;1.53;0.87;;;;;;;3.19;80.66;97286.09;5056838;28;20224;-69
2022/01/08 03:20:28;;;;;;;1.70;0.90;;;;;;;3.14;81.75;97280.59;5056845;28;20589;-69
2022/01/08 03:23:01;;;;;;;1.00;0.90;;;;;;;3.12;82.43;97286.03;5057130;28;20197;-70
2022/01/08 03:25:27;;;;;;;1.43;0.93;;;;;;;3.07;83.84;97280.56;5057155;28;20186;-70
2022/01/08 03:27:54;;;;;;;1.37;1.23;;;;;;;3.07;84.90;97282.38;5056991;28;20222;-70
2022/01/08 03:30:21;;;;;;;1.17;0.87;;;;;;;3.00;85.21;97281.50;5057005;28;20193;-70
2022/01/08 03:32:47;;;;;;;1.73;1.00;;;;;;;2.97;86.16;97266.13;5056987;28;20192;-70
2022/01/08 03:35:14;;;;;;;2.43;1.03;;;;;;;2.95;86.71;97273.41;5057003;28;20193;-70
2022/01/08 03:37:40;;;;;;;1.60;1.07;;;;;;;2.94;87.55;97269.94;5056537;28;20225;-70
2022/01/08 03:40:07;;;;;;;2.47;1.33;;;;;;;2.89;88.73;97261.84;5056905;28;20200;-70
2022/01/08 03:42:34;;;;;;;1.57;1.20;;;;;;;2.78;89.58;97261.53;5056515;28;20216;-70
2022/01/08 03:45:00;;;;;;;2.03;1.30;;;;;;;2.78;89.93;97254.50;5056821;28;20212;-70
2022/01/08 03:47:42;;;;;;;2.10;1.40;;;;;;;2.70;91.60;97264.28;5056733;28;20228;-70
2022/01/08 03:50:09;;;;;;;2.50;1.23;;;;;;;2.75;90.98;97256.69;5056741;28;20276;-70
2022/01/08 03:52:35;;;;;;;1.43;1.33;;;;;;;2.66;91.72;97257.81;5057195;28;20483;-69
2022/01/08 03:55:02;;;;;;;3.73;1.70;;;;;;;2.59;93.72;97252.53;5056372;28;20190;-69
2022/01/08 03:57:28;;;;;;;1.47;1.37;;;;;;;2.61;93.22;97247.06;5056301;28;20654;-69
2022/01/08 03:59:54;;;;;;;1.70;1.60;;;;;;;2.64;93.91;97249.31;5056279;28;20185;-69
2022/01/08 04:02:21;;;;;;;2.83;1.73;;;;;;;2.59;94.35;97243.81;5056537;28;20209;-69
2022/01/08 04:04:48;;;;;;;1.90;1.80;;;;;;;2.56;94.70;97246.81;5056203;28;20209;-69
2022/01/08 04:07:15;;;;;;;2.23;1.77;;;;;;;2.55;95.08;97245.19;5056073;28;20649;-69
2022/01/08 04:09:41;;;;;;;1.90;1.73;;;;;;;2.47;96.60;97240.91;5056175;28;20593;-69
2022/01/08 04:12:08;;;;;;;2.23;1.90;;;;;;;2.48;95.73;97246.97;5056376;28;20216;-69
2022/01/08 04:14:49;;;;;;;2.30;2.10;;;;;;;2.52;95.58;97240.34;5056441;28;20231;-69
2022/01/08 04:17:16;;;;;;;2.93;2.07;;;;;;;2.57;94.73;97245.84;5056320;28;20312;-69
2022/01/08 04:19:43;;;;;;;2.50;1.90;;;;;;;2.54;94.91;97244.41;5056248;28;20225;-69
2022/01/08 04:22:12;;;;;;;1.70;1.57;;;;;;;2.63;94.21;97243.28;5056372;28;20189;-69
2022/01/08 04:24:39;;;;;;;2.50;1.70;;;;;;;2.68;93.69;97237.44;5056359;28;20193;-70
2022/01/08 04:27:06;;;;;;;2.87;1.97;;;;;;;2.66;94.38;97237.63;5056230;28;20232;-70
2022/01/08 04:29:33;;;;;;;1.73;1.63;;;;;;;2.73;93.35;97242.94;5056797;28;20200;-70
2022/01/08 04:31:59;;;;;;;1.90;1.70;;;;;;;2.75;93.13;97254.06;5058181;28;20209;-70
2022/01/08 04:34:27;;;;;;;1.87;1.67;;;;;;;2.78;92.58;97251.88;5060029;28;20233;-70
2022/01/08 04:36:53;;;;;;;2.10;1.97;;;;;;;2.76;93.79;97251.22;5060091;28;20314;-70
2022/01/08 04:39:20;;;;;;;1.80;1.67;;;;;;;2.76;93.37;97256.47;5060050;28;20255;-69
2022/01/08 04:41:46;;;;;;;1.60;1.50;;;;;;;2.76;93.86;97274.06;5059843;28;20209;-69
2022/01/08 04:44:12;;;;;;;2.20;1.70;;;;;;;2.71;94.11;97269.34;5059885;28;20211;-69
2022/01/08 04:46:41;;;;;;;2.40;1.87;;;;;;;2.63;95.47;97271.31;5059882;28;20309;-69
2022/01/08 04:49:07;;;;;;;2.00;1.80;;;;;;;2.59;96.15;97285.81;5059936;28;20185;-69
2022/01/08 04:51:34;;;;;;;1.80;1.60;;;;;;;2.56;95.74;97291.41;5059946;28;20209;-69
2022/01/08 04:54:00;;;;;;;1.50;1.40;;;;;;;2.50;96.88;97289.56;5059880;28;20215;-69
2022/01/08 04:56:26;;;;;;;2.10;1.60;;;;;;;2.42;98.29;97300.97;5059777;28;20225;-69
2022/01/08 04:58:53;;;;;;;1.70;1.60;;;;;;;2.43;98.52;97302.59;5059845;28;20201;-69
2022/01/08 05:01:20;;;;;;;1.73;1.33;;;;;;;2.36;98.58;97304.34;5059781;28;20201;-69
2022/01/08 05:03:46;;;;;;;2.10;1.60;;;;;;;2.26;99.82;97313.50;5059187;28;20194;-69
2022/01/08 05:06:12;;;;;;;1.53;1.30;;;;;;;2.19;100.00;97317.84;5059349;28;20512;-69
2022/01/08 05:08:39;;;;;;;2.07;1.47;;;;;;;2.09;100.00;97319.97;5059442;28;20603;-69
2022/01/08 05:11:05;;;;;;;1.93;1.57;;;;;;;2.03;100.00;97326.75;5059525;28;20213;-69
2022/01/08 05:13:32;;;;;;;1.83;1.43;;;;;;;1.98;100.00;97333.56;5059643;28;20204;-69
2022/01/08 05:15:59;;;;;;;1.57;1.43;;;;;;;1.92;100.00;97334.25;5059537;28;20185;-69
2022/01/08 05:18:29;;;;;;;1.20;1.10;;;;;;;1.91;100.00;97332.66;5059150;28;20589;-69
2022/01/08 05:21:06;;;;;;;1.60;1.50;;;;;;;1.85;100.00;97346.50;5059400;28;20284;-69
2022/01/08 05:23:32;;;;;;;1.20;1.10;;;;;;;1.87;100.00;97340.06;5059285;28;20297;-69
2022/01/08 05:25:59;;;;;;;2.43;1.33;;;;;;;1.88;100.00;97361.81;5059030;28;20683;-69
2022/01/08 05:28:25;;;;;;;1.40;1.30;;;;;;;1.89;100.00;97368.72;5059356;28;20190;-69
2022/01/08 05:30:51;;;;;;;1.50;1.40;;;;;;;1.91;100.00;97375.41;5058913;28;20493;-69
2022/01/08 05:33:18;;;;;;;1.33;1.23;;;;;;;1.95;100.00;97374.06;5058981;28;20189;-69
2022/01/08 05:35:45;;;;;;;1.00;1.00;;;;;;;1.97;100.00;97384.31;5058801;28;20584;-69
2022/01/08 05:38:11;;;;;;;1.43;1.33;;;;;;;1.99;100.00;97385.78;5059178;28;20197;-69
2022/01/08 05:40:38;;;;;;;1.10;1.10;;;;;;;2.05;100.00;97399.97;5059119;28;20499;-69
2022/01/08 05:43:04;;;;;;;1.17;0.90;;;;;;;2.09;100.00;97398.63;5057404;28;20217;-69
2022/01/08 05:45:31;;;;;;;0.80;0.80;;;;;;;2.09;100.00;97404.69;5059053;28;20186;-69
2022/01/08 05:47:57;;;;;;;1.53;0.90;;;;;;;2.13;100.00;97408.56;5058856;28;20225;-69
2022/01/08 05:50:23;;;;;;;0.80;0.80;;;;;;;2.16;100.00;97415.25;5058976;28;20190;-69
2022/01/08 05:52:50;;;;;;;0.93;0.70;;;;;;;2.12;100.00;97416.63;5058858;28;20221;-69
2022/01/08 05:55:17;;;;;;;1.90;0.70;;;;;;;2.13;100.00;97419.06;5058753;28;20205;-69
2022/01/08 05:57:44;;;;;;;0.67;0.57;;;;;;;2.07;100.00;97438.13;5058361;28;20263;-69
2022/01/08 06:00:11;;;;;;;0.50;0.50;;;;;;;2.11;100.00;97438.56;5058378;28;20627;-69
2022/01/08 06:02:38;;;;;;;0.60;0.60;;;;;;;2.16;100.00;97446.72;5058659;28;20209;-69
2022/01/08 06:05:05;;;;;;;0.77;0.50;;;;;;;2.10;100.00;97448.25;5058625;28;20193;-69
2022/01/08 06:07:32;;;;;;;0.50;0.50;;;;;;;2.13;100.00;97457.56;5058520;28;20240;-69
2022/01/08 06:09:58;;;;;;;1.47;0.50;;;;;;;2.11;97.61;97470.00;5058188;28;20492;-69
2022/01/08 06:12:24;;;;;;;0.47;0.30;;;;;;;2.02;96.74;97476.34;5058410;28;20209;-69
2022/01/08 06:14:51;;;;;;;0.40;0.40;;;;;;;1.97;98.78;97481.31;5059029;28;20193;-69
2022/01/08 06:17:17;;;;;;;0.97;0.40;;;;;;;1.97;96.38;97476.88;5058247;28;20461;-69
2022/01/08 06:19:44;;;;;;;0.67;0.40;;;;;;;1.90;96.14;97504.78;5058317;28;20437;-69
2022/01/08 06:22:10;;;;;;;0.23;0.23;;;;;;;1.87;96.70;97525.31;5058310;28;20426;-69
2022/01/08 06:24:36;;;;;;;0.30;0.30;;;;;;;1.88;96.88;97537.41;5058200;28;20730;-69
2022/01/08 06:27:03;;;;;;;0.30;0.30;;;;;;;1.83;96.36;97530.09;5058093;28;20477;-69
2022/01/08 06:29:29;;;;;;;0.30;0.30;;;;;;;1.80;95.95;97540.94;5058171;28;20203;-69
2022/01/08 06:31:56;;;;;;;0.30;0.30;;;;;;;1.78;96.37;97548.16;5058064;28;20217;-72
2022/01/08 06:34:22;;;;;;;0.77;0.37;;;;;;;1.79;96.31;97565.50;5057418;28;20445;-72
2022/01/08 06:36:49;;;;;;;0.50;0.40;;;;;;;1.79;96.79;97568.13;5057465;28;20224;-72
2022/01/08 06:39:16;;;;;;;0.53;0.33;;;;;;;1.78;96.14;97584.84;5057843;28;20189;-72
2022/01/08 06:41:43;;;;;;;0.50;0.50;;;;;;;1.76;96.20;97597.28;5057641;28;20217;-72
2022/01/08 06:44:09;;;;;;;0.60;0.47;;;;;;;1.80;95.38;97598.56;5057509;28;20205;-72
2022/01/08 06:46:35;;;;;;;0.40;0.40;;;;;;;1.77;97.38;97595.50;5057505;28;20660;-72
2022/01/08 06:49:02;;;;;;;0.53;0.53;;;;;;;1.77;95.14;97593.72;5057844;28;20422;-72
2022/01/08 06:51:28;;;;;;;1.20;0.40;;;;;;;1.79;95.20;97622.31;5057732;28;20217;-72
2022/01/08 06:53:55;;;;;;;0.33;0.33;;;;;;;1.79;94.23;97632.81;5057046;28;20200;-72
2022/01/08 06:56:21;;;;;;;0.60;0.60;;;;;;;1.77;96.75;97635.63;5057630;28;20217;-72
2022/01/08 06:58:48;;;;;;;0.57;0.57;;;;;;;1.81;93.24;97662.28;5057613;28;20194;-72
2022/01/08 07:01:14;;;;;;;1.47;0.70;;;;;;;1.83;94.47;97655.88;5057467;28;20268;-72
2022/01/08 07:03:41;;;;;;;0.80;0.60;;;;;;;1.78;94.75;97673.13;5057399;28;20434;-72
2022/01/08 07:06:07;;;;;;;0.60;0.60;;;;;;;1.82;93.31;97679.63;5057380;28;20225;-72
2022/01/08 07:08:33;;;;;;;1.77;0.90;;;;;;;1.84;93.63;97690.75;5057943;28;20580;-72
2022/01/08 07:11:00;;;;;;;0.77;0.77;;;;;;;1.83;94.76;97697.81;5057495;28;20431;-72
2022/01/08 07:13:26;;;;;;;0.80;0.80;;;;;;;1.82;93.57;97714.53;5057229;28;20462;-72
2022/01/08 07:15:52;;;;;;;0.60;0.60;;;;;;;1.83;92.62;97716.16;5057254;28;20193;-72
2022/01/08 07:18:19;;;;;;;0.90;0.90;;;;;;;1.79;92.43;97740.25;5057282;28;20193;-72
2022/01/08 07:20:45;;;;;;;2.60;1.20;;;;;;;1.73;94.91;97733.09;5057139;28;20186;-72
2022/01/08 07:23:11;;;;;;;3.13;1.27;;;;;;;1.68;94.34;97745.88;5057157;28;20185;-72
2022/01/08 07:25:38;;;;;;;1.67;1.10;;;;;;;1.67;95.63;97757.38;5057050;28;20200;-72
2022/01/08 07:28:04;;;;;;;2.03;1.50;;;;;;;1.65;97.94;97762.78;5057025;28;20185;-72
2022/01/08 07:30:30;;;;;;;1.83;1.50;;;;;;;1.61;98.10;97761.47;5057043;28;20193;-72
2022/01/08 07:32:57;;;;;;;1.83;1.60;;;;;;;1.56;98.73;97776.06;5056895;28;20208;-72
2022/01/08 07:35:23;;;;;;;2.57;1.87;;;;;;;1.54;99.41;97783.28;5056878;28;20194;-72
2022/01/08 07:37:52;;;;;;;3.63;1.80;;;;;;;1.52;98.92;97787.84;5056722;28;20221;-72
2022/01/08 07:40:19;;;;;;;1.60;1.40;;;;;;;1.52;98.66;97788.69;5056871;28;20193;-72
2022/01/08 07:42:45;;;;;;;2.93;1.73;;;;;;;1.57;99.36;97799.47;5056279;28;20877;-72
2022/01/08 07:45:12;;;;;;;1.83;1.73;;;;;;;1.60;99.12;97800.94;5056693;28;20205;-72
2022/01/08 07:47:38;;;;;;;1.60;1.50;;;;;;;1.57;98.71;97809.16;5056344;28;20446;-72
2022/01/08 07:50:06;;;;;;;2.67;1.57;;;;;;;1.63;97.61;97817.13;5056584;28;20212;-72
2022/01/08 07:52:33;;;;;;;1.73;1.60;;;;;;;1.62;97.36;97812.06;5056611;28;20221;-72
2022/01/08 07:55:00;;;;;;;1.77;1.63;;;;;;;1.62;97.08;97825.19;5056639;28;20264;-72
2022/01/08 07:57:26;;;;;;;3.90;1.87;;;;;;;1.71;97.24;97824.16;5056162;28;20453;-73
2022/01/08 07:59:53;;;;;;;1.47;1.37;;;;;;;1.76;95.93;97843.63;5056426;28;20418;-72
2022/01/08 08:02:20;;;;;;;2.23;1.80;;;;;;;1.78;96.09;97844.28;5056187;28;20201;-72
2022/01/08 08:04:46;;;;;;;2.10;1.50;;;;;;;1.76;95.47;97848.84;5056250;28;20208;-72
2022/01/08 08:07:13;;;;;;;2.50;2.27;;;;;;;1.78;97.43;97861.78;5055612;28;20298;-72
2022/01/08 08:09:39;;;;;;;2.70;2.00;;;;;;;1.81;95.79;97866.72;5056253;28;20198;-72
2022/01/08 08:12:06;;;;;;;2.93;1.80;;;;;;;1.78;95.96;97867.88;5056274;28;20210;-72
2022/01/08 08:14:32;;;;;;;1.70;1.60;;;;;;;1.75;95.01;97877.88;5056241;28;20423;-72
2022/01/08 08:16:59;;;;;;;4.17;1.53;;;;;;;1.76;94.97;97876.88;5056125;28;20221;-73
2022/01/08 08:19:25;;;;;;;1.87;1.53;;;;;;;1.81;94.86;97885.84;5056385;28;20193;-73
2022/01/08 08:21:51;;;;;;;1.93;1.67;;;;;;;1.80;95.38;97893.91;5056268;28;20207;-73
2022/01/08 08:24:20;;;;;;;2.60;1.87;;;;;;;1.87;93.38;97895.69;5055877;28;20197;-73
2022/01/08 08:26:47;;;;;;;3.90;1.80;;;;;;;1.93;94.80;97896.78;5055968;28;20267;-73
2022/01/08 08:29:13;;;;;;;1.50;1.40;;;;;;;1.97;92.91;97903.34;5056140;28;20197;-73
2022/01/08 08:31:39;;;;;;;4.00;1.83;;;;;;;2.04;90.67;97915.63;5056220;28;20190;-73
2022/01/08 08:34:06;;;;;;;2.03;1.30;;;;;;;2.07;89.74;97906.59;5056156;28;20190;-73
2022/01/08 08:36:32;;;;;;;2.23;1.20;;;;;;;2.10;90.50;97914.94;5056103;28;20517;-73
2022/01/08 08:38:58;;;;;;;2.27;1.23;;;;;;;2.12;89.06;97915.56;5056044;28;20277;-73
2022/01/08 08:41:25;;;;;;;1.87;1.20;;;;;;;2.21;88.80;97922.41;5055766;28;20220;-73
2022/01/08 08:43:51;;;;;;;4.60;1.10;;;;;;;2.18;88.00;97912.28;5055968;28;20201;-73
2022/01/08 08:46:17;;;;;;;4.57;1.30;;;;;;;2.14;87.04;97931.97;5055617;28;20647;-72
2022/01/08 08:48:44;;;;;;;2.30;1.00;;;;;;;2.16;87.62;97935.22;5055988;28;20508;-73
2022/01/08 08:51:11;;;;;;;3.23;0.90;;;;;;;2.21;87.30;97935.53;5055962;28;20507;-73
2022/01/08 08:53:37;;;;;;;2.97;1.20;;;;;;;2.23;85.96;97946.69;5055617;28;20214;-73
2022/01/08 08:56:04;;;;;;;3.00;1.40;;;;;;;2.25;85.43;97952.56;5055597;28;20232;-73
2022/01/08 08:58:31;;;;;;;2.67;1.23;;;;;;;2.26;89.22;97956.81;5055393;28;20200;-73
2022/01/08 09:00:57;;;;;;;1.50;1.23;;;;;;;2.28;84.99;97964.53;5055850;28;20197;-73
2022/01/08 09:03:23;;;;;;;4.00;1.20;;;;;;;2.36;85.50;97961.88;5055345;28;20201;-73
2022/01/08 09:05:50;;;;;;;2.27;1.30;;;;;;;2.29;86.10;97963.53;5055220;28;20201;-73
2022/01/08 09:08:16;;;;;;;2.70;1.20;;;;;;;2.33;85.72;97972.69;5055410;28;20205;-73
2022/01/08 09:10:42;;;;;;;2.70;1.13;;;;;;;2.35;84.99;97962.88;5055622;28;20501;-73
2022/01/08 09:13:09;;;;;;;2.47;1.10;;;;;;;2.35;84.41;97981.25;5055419;28;20493;-73
2022/01/08 09:15:40;;;;;;;3.70;1.23;;;;;;;2.40;84.98;97973.69;5056296;28;20251;-73
2022/01/08 09:18:07;;;;;;;3.33;1.10;;;;;;;2.35;83.46;97976.00;5057879;28;20190;-73
2022/01/08 09:20:34;;;;;;;3.43;1.53;;;;;;;2.37;84.93;97981.88;5059525;28;20225;-73
2022/01/08 09:23:00;;;;;;;2.20;1.10;;;;;;;2.45;83.48;97987.09;5059365;28;20194;-73
2022/01/08 09:25:27;;;;;;;2.73;1.17;;;;;;;2.46;84.08;97988.72;5059296;28;20197;-73
2022/01/08 09:27:54;;;;;;;3.13;1.13;;;;;;;2.48;81.76;97984.16;5059297;28;20221;-73
2022/01/08 09:30:21;;;;;;;1.80;1.20;;;;;;;2.57;81.50;97991.00;5059197;28;20194;-73
2022/01/08 09:32:47;;;;;;;4.00;1.43;;;;;;;2.60;83.18;97983.59;5058717;28;20712;-73
2022/01/08 09:35:16;;;;;;;2.00;1.40;;;;;;;2.61;81.54;98000.13;5059211;28;20373;-73
2022/01/08 09:37:42;;;;;;;3.13;1.30;;;;;;;2.56;80.86;97999.84;5058965;28;20221;-73
2022/01/08 09:40:13;;;;;;;3.27;1.50;;;;;;;2.55;80.39;97995.56;5058699;28;20501;-73
2022/01/08 09:42:41;;;;;;;2.90;1.43;;;;;;;2.51;79.90;98002.16;5058626;28;20205;-73
2022/01/08 09:45:08;;;;;;;2.87;1.37;;;;;;;2.56;82.02;98002.47;5058874;28;20239;-72
2022/01/08 09:47:34;;;;;;;3.27;1.43;;;;;;;2.59;82.21;97999.50;5058394;28;20236;-73
2022/01/08 09:50:02;;;;;;;2.63;1.40;;;;;;;2.55;81.04;98000.81;5058649;28;20194;-73
2022/01/08 09:52:30;;;;;;;3.80;1.40;;;;;;;2.53;80.21;98001.00;5058320;28;20624;-73
2022/01/08 09:54:57;;;;;;;4.63;1.40;;;;;;;2.52;80.94;98001.97;5058490;28;20201;-73
2022/01/08 09:57:23;;;;;;;2.47;1.40;;;;;;;2.61;82.01;98008.84;5058260;28;20217;-72
2022/01/08 09:59:49;;;;;;;3.23;1.40;;;;;;;2.62;80.67;98009.66;5058477;28;20206;-73
2022/01/08 10:02:20;;;;;;;2.50;1.43;;;;;;;2.63;81.03;98013.91;5056836;28;20201;-73
2022/01/08 10:04:47;;;;;;;3.07;1.57;;;;;;;2.55;80.91;98009.53;5056083;28;20577;-73
2022/01/08 10:07:25;;;;;;;1.77;1.20;;;;;;;2.46;79.24;98018.41;5056227;28;20221;-73
2022/01/08 10:10:17;;;;;;;2.73;1.20;;;;;;;2.54;79.49;98015.78;5056402;28;20276;-73
2022/01/08 10:12:50;;;;;;;1.80;1.20;;;;;;;2.57;80.76;98017.22;5056265;28;20560;-73
2022/01/08 10:18:10;;;;;;;2.53;1.40;;;;;;;2.56;78.65;98020.81;5057614;28;20588;-73
2022/01/08 10:20:37;;;;;;;4.67;1.60;;;;;;;2.53;78.83;98021.97;5058157;28;20197;-73
2022/01/08 10:23:20;;;;;;;3.80;1.40;;;;;;;2.47;79.84;98020.03;5057971;28;20239;-73
2022/01/08 10:25:58;;;;;;;1.67;1.20;;;;;;;2.42;77.04;98032.84;5058003;28;20573;-73
2022/01/08 10:28:35;;;;;;;2.30;1.13;;;;;;;2.46;78.78;98025.44;5057562;28;20189;-73
2022/01/08 10:31:20;;;;;;;7.93;1.50;;;;;;;2.50;76.64;98029.38;5057532;28;20627;-72
2022/01/08 10:34:08;;;;;;;3.80;1.43;;;;;;;2.47;77.35;98025.28;5058115;28;20228;-73
2022/01/08 10:36:51;;;;;;;4.93;1.47;;;;;;;2.54;77.23;98022.81;5057569;28;20275;-72
2022/01/08 10:39:25;;;;;;;2.83;1.47;;;;;;;2.58;77.74;98024.91;5057890;28;20198;-73
2022/01/08 10:41:55;;;;;;;2.70;1.17;;;;;;;2.58;78.23;98024.91;5057711;28;20217;-73
2022/01/08 10:44:31;;;;;;;2.60;1.40;;;;;;;2.57;77.80;98027.72;5057616;28;20186;-73
2022/01/08 10:46:58;;;;;;;2.93;1.67;;;;;;;2.62;77.76;98025.41;5057514;28;20247;-72
2022/01/08 10:49:34;;;;;;;3.57;1.67;;;;;;;2.56;76.66;98018.19;5057437;28;20254;-73
2022/01/08 10:52:06;;;;;;;4.57;1.30;;;;;;;2.62;77.68;98025.41;5057255;28;20284;-73
2022/01/08 10:54:38;;;;;;;4.70;1.40;;;;;;;2.76;77.23;98024.69;5057482;28;20213;-73
2022/01/08 10:57:07;;;;;;;1.50;1.10;;;;;;;2.66;75.34;98030.13;5057410;28;20221;-73
2022/01/08 10:59:35;;;;;;;2.83;1.43;;;;;;;2.72;74.72;98031.28;5057441;28;20204;-73
2022/01/08 11:02:03;;;;;;;3.97;1.40;;;;;;;2.53;73.43;98023.81;5057262;28;20221;-73
2022/01/08 11:04:37;;;;;;;4.33;1.60;;;;;;;2.61;75.79;98023.75;5057208;28;20292;-73
2022/01/08 11:07:09;;;;;;;3.67;1.60;;;;;;;2.78;74.67;98020.09;5056687;28;20669;-72
2022/01/08 11:09:37;;;;;;;3.03;1.00;;;;;;;2.91;75.95;98010.69;5057170;28;20185;-73
2022/01/08 11:12:07;;;;;;;3.03;1.13;;;;;;;2.83;73.66;98007.25;5057110;28;20205;-73
2022/01/08 11:17:32;;;;;;;2.47;1.00;;;;;;;2.58;75.04;98001.28;5057057;28;20214;-73
2022/01/08 11:20:01;;;;;;;4.13;1.00;;;;;;;2.67;73.42;97995.03;5056997;28;20194;-73
2022/01/08 11:22:32;;;;;;;3.83;1.10;;;;;;;2.82;74.56;97998.59;5056740;28;20206;-73
2022/01/08 11:25:06;;;;;;;1.77;0.80;;;;;;;3.00;72.81;98004.41;5056828;28;20190;-73
2022/01/08 11:28:05;;;;;;;3.03;1.10;;;;;;;3.20;73.00;97992.44;5056237;28;20308;-73
2022/01/08 11:30:37;;;;;;;6.43;1.30;;;;;;;3.07;74.16;97975.63;5056517;28;20181;-73
2022/01/08 11:33:08;;;;;;;2.83;1.13;;;;;;;3.01;73.03;97982.38;5056625;28;20209;-73
2022/01/08 11:35:37;;;;;;;3.53;1.30;;;;;;;2.89;72.99;97991.63;5057007;28;20205;-73
2022/01/08 11:38:10;;;;;;;2.33;1.00;;;;;;;2.95;74.73;97990.13;5056184;28;20667;-73
2022/01/08 11:40:40;;;;;;;3.90;1.30;;;;;;;2.92;73.40;97974.72;5055228;28;20545;-73
2022/01/08 11:43:09;;;;;;;3.77;1.07;;;;;;;2.89;72.09;97975.88;5055934;28;20300;-73
2022/01/08 11:45:47;;;;;;;6.67;1.23;;;;;;;2.90;71.20;97980.16;5056389;28;20193;-73
2022/01/08 11:48:14;;;;;;;2.57;1.07;;;;;;;2.93;72.29;97974.56;5056374;28;20251;-73
2022/01/08 11:50:49;;;;;;;4.23;1.30;;;;;;;3.18;72.12;97972.59;5056395;28;20189;-73
2022/01/08 11:53:22;;;;;;;6.00;1.30;;;;;;;3.43;72.37;97971.44;5056281;28;20221;-73
2022/01/08 11:55:52;;;;;;;3.40;1.00;;;;;;;3.56;73.17;97953.22;5056018;28;20189;-73
2022/01/08 11:58:22;;;;;;;2.40;1.23;;;;;;;3.55;71.05;97952.44;5056155;28;20197;-73
2022/01/08 12:00:58;;;;;;;4.27;1.40;;;;;;;3.65;70.27;97947.75;5056298;28;20197;-73
2022/01/08 12:03:57;;;;;;;3.53;1.33;;;;;;;3.77;73.70;97945.50;5056203;28;20203;-73
2022/01/08 12:06:24;;;;;;;4.13;1.00;;;;;;;3.76;70.94;97949.94;5044098;28;20640;-72